createdAt,value
2023-10-23T00:01:40.058Z,9.80
2023-10-23T00:04:26.458Z,9.70
2023-10-23T00:07:12.955Z,9.60
2023-10-23T00:09:59.116Z,9.60
2023-10-23T00:12:45.356Z,9.60
2023-10-23T00:15:31.340Z,9.60
2023-10-23T00:18:17.308Z,9.70
2023-10-23T00:21:03.712Z,9.70
2023-10-23T00:23:50.918Z,9.70
2023-10-23T00:26:37.222Z,9.80
2023-10-23T00:29:23.501Z,9.80
2023-10-23T00:32:09.668Z,9.80
2023-10-23T00:34:55.578Z,9.80
2023-10-23T00:37:41.591Z,9.80
2023-10-23T00:40:27.809Z,9.80
2023-10-23T00:43:25.422Z,9.70
2023-10-23T00:46:19.693Z,9.70
2023-10-23T00:49:05.815Z,9.60
2023-10-23T00:51:52.480Z,9.60
2023-10-23T00:54:41.009Z,9.60
2023-10-23T00:57:27.742Z,9.70
2023-10-23T01:00:14.859Z,9.70
2023-10-23T01:03:01.311Z,9.70
2023-10-23T01:05:47.657Z,9.70
2023-10-23T01:08:33.879Z,9.60
2023-10-23T01:11:20.156Z,9.60
2023-10-23T01:14:06.283Z,9.70
2023-10-23T01:16:52.306Z,9.70
2023-10-23T01:19:38.908Z,9.70
2023-10-23T01:22:25.202Z,9.70
2023-10-23T01:25:15.349Z,9.60
2023-10-23T01:28:01.861Z,9.60
2023-10-23T01:30:48.535Z,9.60
2023-10-23T01:33:36.810Z,9.50
2023-10-23T01:36:23.444Z,9.60
2023-10-23T01:39:09.479Z,9.70
2023-10-23T01:41:55.529Z,9.60
2023-10-23T01:44:41.486Z,9.50
2023-10-23T01:47:28.344Z,9.40
2023-10-23T01:50:14.823Z,9.50
2023-10-23T01:53:00.683Z,9.40
2023-10-23T01:55:46.814Z,9.40
2023-10-23T01:58:32.784Z,9.30
2023-10-23T02:01:23.705Z,9.40
2023-10-23T02:04:10.450Z,9.40
2023-10-23T02:06:57.269Z,9.40
2023-10-23T02:09:45.427Z,9.20
2023-10-23T02:12:33.724Z,9.10
2023-10-23T02:15:20.253Z,8.90
2023-10-23T02:18:08.901Z,8.90
2023-10-23T02:20:54.883Z,8.90
2023-10-23T02:23:53.280Z,8.90
2023-10-23T02:26:43.384Z,9.00
2023-10-23T02:29:29.642Z,9.10
2023-10-23T02:32:16.017Z,9.10
2023-10-23T02:35:02.467Z,8.90
2023-10-23T02:37:50.441Z,8.80
2023-10-23T02:40:36.602Z,8.60
2023-10-23T02:43:22.795Z,8.50
2023-10-23T02:46:09.183Z,8.50
2023-10-23T02:48:55.953Z,8.60
2023-10-23T02:51:42.358Z,8.70
2023-10-23T02:54:29.791Z,8.70
2023-10-23T02:57:16.156Z,8.80
2023-10-23T03:00:02.476Z,8.90
2023-10-23T03:02:49.997Z,8.90
2023-10-23T03:05:36.327Z,9.00
2023-10-23T03:08:22.736Z,8.90
2023-10-23T03:11:09.419Z,8.80
2023-10-23T03:13:55.985Z,8.70
2023-10-23T03:16:42.170Z,8.80
2023-10-23T03:19:28.411Z,8.70
2023-10-23T03:22:14.925Z,8.60
2023-10-23T03:25:01.019Z,8.50
2023-10-23T03:27:47.794Z,8.50
2023-10-23T03:30:34.092Z,8.40
2023-10-23T03:33:20.029Z,8.30
2023-10-23T03:36:06.303Z,8.30
2023-10-23T03:38:52.418Z,8.30
2023-10-23T03:41:38.487Z,8.30
2023-10-23T03:44:24.550Z,8.40
2023-10-23T03:47:10.509Z,8.40
2023-10-23T03:49:56.605Z,8.30
2023-10-23T03:52:42.647Z,8.30
2023-10-23T03:55:28.709Z,8.30
2023-10-23T03:58:14.655Z,8.30
2023-10-23T04:01:00.932Z,8.40
2023-10-23T04:03:46.977Z,8.30
2023-10-23T04:06:33.000Z,8.30
2023-10-23T04:09:19.204Z,8.20
2023-10-23T04:12:05.397Z,8.20
2023-10-23T04:14:51.960Z,8.20
2023-10-23T04:17:38.239Z,8.10
2023-10-23T04:20:24.200Z,8.10
2023-10-23T04:23:10.297Z,8.10
2023-10-23T04:25:57.092Z,8.10
2023-10-23T04:28:43.592Z,8.10
2023-10-23T04:31:29.994Z,8.10
2023-10-23T04:34:15.964Z,8.10
2023-10-23T04:37:02.005Z,8.10
2023-10-23T04:39:47.997Z,8.00
2023-10-23T04:42:34.036Z,8.00
2023-10-23T04:45:19.989Z,8.10
2023-10-23T04:48:07.367Z,8.10
2023-10-23T04:50:53.311Z,8.10
2023-10-23T04:53:39.368Z,8.00
2023-10-23T04:56:25.348Z,8.00
2023-10-23T04:59:11.539Z,7.90
2023-10-23T05:01:57.721Z,7.90
2023-10-23T05:04:43.717Z,7.90
2023-10-23T05:07:29.615Z,7.80
2023-10-23T05:10:16.178Z,7.70
2023-10-23T05:13:04.311Z,7.70
2023-10-23T05:15:50.776Z,7.60
2023-10-23T05:18:36.866Z,7.50
2023-10-23T05:21:22.985Z,7.50
2023-10-23T05:24:09.555Z,7.50
2023-10-23T05:26:56.003Z,7.50
2023-10-23T05:29:42.106Z,7.50
2023-10-23T05:32:28.230Z,7.50
2023-10-23T05:35:16.058Z,7.60
2023-10-23T05:38:02.454Z,7.50
2023-10-23T05:40:48.488Z,7.50
2023-10-23T05:43:34.575Z,7.40
2023-10-23T05:46:22.395Z,7.50
2023-10-23T05:49:09.079Z,7.50
2023-10-23T05:51:55.231Z,7.60
2023-10-23T05:54:41.391Z,7.70
2023-10-23T05:57:27.816Z,7.80
2023-10-23T06:00:14.310Z,7.90
2023-10-23T06:03:00.671Z,7.90
2023-10-23T06:05:46.925Z,7.90
2023-10-23T06:08:33.142Z,7.90
2023-10-23T06:11:19.200Z,7.90
2023-10-23T06:14:05.603Z,8.00
2023-10-23T06:16:52.227Z,8.00
2023-10-23T06:19:38.638Z,8.00
2023-10-23T06:22:25.072Z,8.00
2023-10-23T06:25:11.120Z,8.00
2023-10-23T06:27:57.595Z,8.00
2023-10-23T06:30:43.956Z,8.00
2023-10-23T06:33:29.769Z,8.00
2023-10-23T06:36:15.940Z,8.00
2023-10-23T06:39:02.355Z,8.10
2023-10-23T06:41:51.065Z,8.20
2023-10-23T06:44:37.251Z,8.20
2023-10-23T06:47:23.739Z,8.30
2023-10-23T06:50:11.881Z,8.30
2023-10-23T06:52:57.917Z,8.30
2023-10-23T06:55:51.396Z,8.30
2023-10-23T06:58:37.775Z,8.40
2023-10-23T07:01:38.019Z,8.50
2023-10-23T07:04:28.941Z,8.60
2023-10-23T07:07:28.669Z,8.70
2023-10-23T07:10:15.997Z,8.90
2023-10-23T07:13:19.103Z,9.10
2023-10-23T07:16:08.642Z,9.30
2023-10-23T07:18:54.728Z,9.50
2023-10-23T07:21:40.999Z,9.60
2023-10-23T07:24:27.017Z,9.70
2023-10-23T07:27:16.391Z,9.90
2023-10-23T07:30:05.298Z,10.00
2023-10-23T07:32:51.688Z,10.10
2023-10-23T07:35:50.896Z,10.20
2023-10-23T07:38:42.561Z,10.30
2023-10-23T07:41:28.949Z,10.20
2023-10-23T07:44:15.179Z,10.10
2023-10-23T07:47:01.593Z,10.00
2023-10-23T07:49:47.918Z,10.00
2023-10-23T07:52:34.179Z,10.30
2023-10-23T07:55:20.264Z,10.50
2023-10-23T07:58:06.555Z,10.80
2023-10-23T08:01:01.465Z,11.10
2023-10-23T08:03:48.343Z,11.30
2023-10-23T08:06:34.802Z,11.40
2023-10-23T08:09:22.211Z,11.60
2023-10-23T08:12:08.779Z,11.70
2023-10-23T08:14:55.049Z,11.80
2023-10-23T08:17:42.801Z,11.80
2023-10-23T08:20:30.376Z,11.90
2023-10-23T08:23:16.903Z,12.10
2023-10-23T08:26:02.916Z,12.20
2023-10-23T08:29:02.056Z,12.20
2023-10-23T08:31:49.269Z,12.40
2023-10-23T08:34:35.588Z,12.50
2023-10-23T08:37:21.751Z,12.60
2023-10-23T08:40:09.083Z,12.80
2023-10-23T08:42:55.001Z,12.90
2023-10-23T08:45:43.770Z,13.00
2023-10-23T08:48:30.306Z,13.00
2023-10-23T08:51:16.547Z,13.20
2023-10-23T08:54:11.481Z,13.40
2023-10-23T08:57:00.466Z,13.70
2023-10-23T08:59:46.837Z,13.90
2023-10-23T09:02:34.489Z,14.10
2023-10-23T09:05:38.787Z,14.30
2023-10-23T09:08:28.623Z,14.60
2023-10-23T09:11:14.919Z,14.60
2023-10-23T09:14:01.195Z,14.60
2023-10-23T09:16:47.443Z,14.60
2023-10-23T09:19:42.205Z,14.80
2023-10-23T09:22:30.242Z,15.00
2023-10-23T09:25:22.498Z,15.10
2023-10-23T09:28:12.345Z,15.20
2023-10-23T09:30:58.576Z,15.20
2023-10-23T09:33:46.480Z,15.30
2023-10-23T09:36:34.559Z,15.30
2023-10-23T09:39:23.539Z,15.20
2023-10-23T09:42:10.165Z,15.10
2023-10-23T09:44:56.344Z,15.00
2023-10-23T09:47:42.621Z,15.10
2023-10-23T09:50:29.290Z,15.20
2023-10-23T09:53:17.048Z,15.40
2023-10-23T09:56:06.400Z,15.40
2023-10-23T09:59:00.098Z,15.40
2023-10-23T10:01:50.782Z,15.40
2023-10-23T10:05:09.807Z,15.40
2023-10-23T10:08:09.376Z,15.30
2023-10-23T10:10:56.727Z,15.50
2023-10-23T10:13:44.031Z,15.40
2023-10-23T10:16:31.019Z,15.50
2023-10-23T10:19:18.199Z,15.50
2023-10-23T10:22:34.575Z,15.60
2023-10-23T10:25:21.600Z,15.70
2023-10-23T10:28:09.377Z,15.90
2023-10-23T10:30:56.092Z,16.00
2023-10-23T10:34:26.470Z,16.00
2023-10-23T10:36:49.622Z,16.20
2023-10-23T10:39:59.270Z,16.40
2023-10-23T10:42:45.506Z,16.70
2023-10-23T10:45:31.787Z,16.90
2023-10-23T10:48:18.462Z,16.90
2023-10-23T10:51:05.306Z,17.00
2023-10-23T10:54:03.480Z,17.00
2023-10-23T10:56:50.564Z,16.80
2023-10-23T10:59:36.874Z,16.70
2023-10-23T11:02:24.419Z,16.50
2023-10-23T11:05:12.272Z,16.50
2023-10-23T11:07:58.518Z,16.40
2023-10-23T11:10:44.972Z,16.40
2023-10-23T11:13:31.993Z,16.30
2023-10-23T11:16:18.063Z,16.30
2023-10-23T11:19:05.314Z,16.30
2023-10-23T11:22:08.077Z,16.30
2023-10-23T11:24:54.900Z,16.30
2023-10-23T11:27:41.592Z,16.40
2023-10-23T11:30:28.921Z,16.40
2023-10-23T11:33:19.007Z,16.60
2023-10-23T11:36:06.979Z,16.70
2023-10-23T11:38:53.001Z,16.80
2023-10-23T11:41:39.115Z,16.90
2023-10-23T11:44:28.644Z,16.90
2023-10-23T11:47:14.887Z,16.80
2023-10-23T11:50:01.500Z,16.70
2023-10-23T11:52:49.688Z,16.70
2023-10-23T11:55:37.647Z,16.60
2023-10-23T11:58:30.752Z,16.60
2023-10-23T12:01:16.855Z,16.70
2023-10-23T12:04:05.566Z,16.60
2023-10-23T12:06:52.120Z,16.60
2023-10-23T12:09:38.477Z,16.50
2023-10-23T12:12:24.613Z,16.50
2023-10-23T12:15:12.140Z,16.40
2023-10-23T12:18:07.654Z,16.30
2023-10-23T12:20:54.346Z,16.40
2023-10-23T12:23:42.296Z,16.40
2023-10-23T12:26:28.676Z,16.50
2023-10-23T12:29:16.320Z,16.60
2023-10-23T12:32:02.813Z,16.70
2023-10-23T12:34:52.125Z,16.80
2023-10-23T12:37:40.249Z,16.70
2023-10-23T12:40:30.731Z,16.70
2023-10-23T12:43:19.072Z,16.60
2023-10-23T12:46:05.144Z,16.70
2023-10-23T12:48:51.264Z,17.00
2023-10-23T12:51:37.534Z,17.30
2023-10-23T12:54:23.739Z,17.50
2023-10-23T12:57:09.964Z,17.50
2023-10-23T12:59:56.120Z,17.60
2023-10-23T13:02:43.564Z,17.70
2023-10-23T13:05:30.601Z,17.80
2023-10-23T13:08:16.795Z,18.10
2023-10-23T13:11:02.965Z,18.20
2023-10-23T13:13:49.283Z,18.20
2023-10-23T13:16:35.976Z,18.10
2023-10-23T13:19:22.677Z,18.10
2023-10-23T13:22:11.569Z,18.10
2023-10-23T13:24:58.112Z,18.10
2023-10-23T13:27:44.123Z,18.20
2023-10-23T13:30:30.290Z,18.10
2023-10-23T13:33:16.239Z,18.10
2023-10-23T13:36:02.387Z,17.90
2023-10-23T13:38:49.737Z,17.80
2023-10-23T13:41:35.987Z,17.80
2023-10-23T13:44:22.235Z,17.90
2023-10-23T13:47:08.655Z,18.00
2023-10-23T13:49:57.036Z,18.00
2023-10-23T13:52:43.291Z,18.00
2023-10-23T13:55:29.472Z,17.90
2023-10-23T13:58:15.642Z,17.70
2023-10-23T14:01:01.709Z,17.50
2023-10-23T14:03:48.265Z,17.40
2023-10-23T14:06:34.633Z,17.30
2023-10-23T14:09:40.326Z,16.90
2023-10-23T14:12:27.346Z,16.80
2023-10-23T14:15:14.514Z,16.70
2023-10-23T14:18:00.632Z,16.60
2023-10-23T14:20:47.144Z,16.50
2023-10-23T14:23:33.214Z,16.40
2023-10-23T14:26:19.723Z,16.30
2023-10-23T14:29:08.700Z,16.30
2023-10-23T14:31:55.145Z,16.20
2023-10-23T14:34:41.468Z,16.50
2023-10-23T14:37:27.929Z,16.70
2023-10-23T14:40:15.213Z,16.80
2023-10-23T14:43:01.766Z,16.90
2023-10-23T14:45:52.640Z,16.90
2023-10-23T14:48:40.218Z,16.90
2023-10-23T14:51:26.525Z,16.90
2023-10-23T14:54:12.601Z,16.90
2023-10-23T14:56:58.962Z,16.90
2023-10-23T14:59:45.256Z,16.90
2023-10-23T15:02:31.509Z,16.90
2023-10-23T15:05:18.059Z,16.70
2023-10-23T15:08:04.545Z,16.70
2023-10-23T15:10:50.649Z,16.60
2023-10-23T15:13:36.831Z,16.60
2023-10-23T15:16:23.161Z,16.60
2023-10-23T15:19:09.194Z,16.40
2023-10-23T15:21:55.813Z,16.40
2023-10-23T15:24:42.525Z,16.30
2023-10-23T15:27:29.206Z,16.30
2023-10-23T15:30:16.618Z,16.20
2023-10-23T15:33:05.276Z,16.00
2023-10-23T15:35:58.186Z,15.90
2023-10-23T15:38:44.833Z,15.80
2023-10-23T15:41:30.893Z,15.70
2023-10-23T15:44:17.999Z,15.50
2023-10-23T15:47:04.367Z,15.40
2023-10-23T15:49:51.031Z,15.30
2023-10-23T15:52:36.989Z,15.30
2023-10-23T15:55:24.347Z,15.20
2023-10-23T15:58:11.533Z,15.20
2023-10-23T16:00:58.397Z,15.10
2023-10-23T16:03:45.270Z,15.10
2023-10-23T16:06:33.127Z,15.00
2023-10-23T16:09:26.384Z,14.90
2023-10-23T16:12:15.249Z,14.90
2023-10-23T16:15:01.957Z,14.80
2023-10-23T16:17:49.341Z,14.70
2023-10-23T16:20:38.085Z,14.60
2023-10-23T16:23:25.402Z,14.60
2023-10-23T16:26:12.207Z,14.50
2023-10-23T16:28:58.710Z,14.50
2023-10-23T16:31:45.299Z,14.50
2023-10-23T16:34:32.883Z,14.40
2023-10-23T16:37:19.164Z,14.40
2023-10-23T16:40:05.982Z,14.40
2023-10-23T16:42:52.460Z,14.40
2023-10-23T16:45:38.772Z,14.40
2023-10-23T16:48:25.189Z,14.40
2023-10-23T16:51:11.523Z,14.40
2023-10-23T16:53:57.861Z,14.30
2023-10-23T16:56:44.407Z,14.30
2023-10-23T16:59:30.666Z,14.30
2023-10-23T17:02:17.249Z,14.20
2023-10-23T17:05:03.742Z,14.30
2023-10-23T17:07:50.085Z,14.30
2023-10-23T17:10:36.752Z,14.30
2023-10-23T17:13:23.455Z,14.30
2023-10-23T17:16:13.439Z,14.20
2023-10-23T17:19:00.206Z,14.20
2023-10-23T17:21:47.239Z,14.20
2023-10-23T17:24:34.902Z,14.20
2023-10-23T17:27:21.025Z,14.10
2023-10-23T17:30:08.052Z,14.10
2023-10-23T17:32:54.560Z,14.10
2023-10-23T17:35:40.958Z,14.00
2023-10-23T17:38:27.607Z,13.90
2023-10-23T17:41:16.193Z,13.90
2023-10-23T17:44:02.672Z,13.90
2023-10-23T17:46:48.781Z,13.90
2023-10-23T17:49:35.142Z,13.90
2023-10-23T17:52:21.606Z,13.90
2023-10-23T17:55:08.576Z,13.80
2023-10-23T17:57:55.310Z,13.80
2023-10-23T18:00:41.579Z,13.80
2023-10-23T18:03:28.205Z,13.80
2023-10-23T18:06:14.552Z,13.70
2023-10-23T18:09:03.020Z,13.70
2023-10-23T18:11:49.386Z,13.70
2023-10-23T18:14:35.657Z,13.70
2023-10-23T18:17:22.171Z,13.60
2023-10-23T18:20:09.004Z,13.60
2023-10-23T18:22:58.104Z,13.60
2023-10-23T18:25:44.165Z,13.60
2023-10-23T18:28:30.689Z,13.50
2023-10-23T18:31:17.471Z,13.50
2023-10-23T18:34:04.970Z,13.50
2023-10-23T18:36:51.313Z,13.50
2023-10-23T18:39:38.007Z,13.40
2023-10-23T18:42:25.623Z,13.40
2023-10-23T18:45:12.267Z,13.30
2023-10-23T18:47:58.769Z,13.30
2023-10-23T18:50:45.160Z,13.20
2023-10-23T18:53:31.747Z,13.20
2023-10-23T18:56:17.852Z,13.20
2023-10-23T18:59:04.484Z,13.10
2023-10-23T19:01:50.555Z,13.10
2023-10-23T19:04:36.659Z,13.00
2023-10-23T19:07:23.211Z,13.00
2023-10-23T19:10:10.886Z,12.90
2023-10-23T19:12:57.064Z,12.90
2023-10-23T19:15:43.020Z,12.90
2023-10-23T19:18:31.252Z,12.80
2023-10-23T19:21:18.057Z,12.70
2023-10-23T19:24:05.121Z,12.70
2023-10-23T19:26:50.993Z,12.70
2023-10-23T19:29:37.173Z,12.70
2023-10-23T19:32:23.420Z,12.70
2023-10-23T19:35:10.798Z,12.70
2023-10-23T19:37:57.197Z,12.70
2023-10-23T19:40:50.496Z,12.70
2023-10-23T19:43:43.236Z,12.70
2023-10-23T19:46:29.692Z,12.70
2023-10-23T19:49:16.190Z,12.70
2023-10-23T19:52:03.169Z,12.70
2023-10-23T19:54:50.954Z,12.70
2023-10-23T19:57:37.705Z,12.70
2023-10-23T20:00:24.076Z,12.60
2023-10-23T20:03:11.154Z,12.60
2023-10-23T20:05:57.099Z,12.60
2023-10-23T20:08:43.223Z,12.50
2023-10-23T20:11:29.658Z,12.50
2023-10-23T20:14:17.379Z,12.50
2023-10-23T20:17:04.051Z,12.40
2023-10-23T20:19:50.614Z,12.40
2023-10-23T20:22:36.775Z,12.30
2023-10-23T20:25:23.037Z,12.30
2023-10-23T20:28:10.337Z,12.30
2023-10-23T20:30:56.604Z,12.30
2023-10-23T20:33:43.630Z,12.30
2023-10-23T20:36:30.021Z,12.30
2023-10-23T20:39:16.133Z,12.30
2023-10-23T20:42:02.278Z,12.30
2023-10-23T20:44:48.286Z,12.30
2023-10-23T20:47:35.649Z,12.30
2023-10-23T20:50:24.272Z,12.30
2023-10-23T20:53:10.593Z,12.30
2023-10-23T20:55:58.819Z,12.30
2023-10-23T20:58:44.904Z,12.20
2023-10-23T21:01:31.127Z,12.20
2023-10-23T21:04:17.022Z,12.20
2023-10-23T21:07:03.713Z,12.20
2023-10-23T21:09:51.634Z,12.10
2023-10-23T21:12:38.665Z,12.10
2023-10-23T21:15:24.769Z,12.10
2023-10-23T21:18:10.886Z,12.00
2023-10-23T21:20:57.170Z,12.00
2023-10-23T21:23:43.455Z,12.00
2023-10-23T21:26:31.195Z,12.00
2023-10-23T21:29:21.975Z,11.90
2023-10-23T21:32:08.675Z,11.90
2023-10-23T21:34:54.970Z,11.90
2023-10-23T21:37:41.224Z,11.90
2023-10-23T21:40:27.362Z,11.90
2023-10-23T21:43:14.029Z,11.90
2023-10-23T21:48:56.119Z,11.70
2023-10-23T21:51:42.544Z,11.70
2023-10-23T21:54:28.774Z,11.70
2023-10-23T21:57:22.522Z,11.70
2023-10-23T22:00:18.964Z,11.60
2023-10-23T22:03:05.533Z,11.60
2023-10-23T22:05:52.092Z,11.60
2023-10-23T22:08:44.594Z,11.60
2023-10-23T22:11:31.156Z,11.60
2023-10-23T22:14:17.805Z,11.50
2023-10-23T22:17:04.432Z,11.50
2023-10-23T22:19:50.594Z,11.60
2023-10-23T22:22:36.674Z,11.60
2023-10-23T22:25:22.736Z,11.60
2023-10-23T22:28:08.955Z,11.60
2023-10-23T22:30:55.282Z,11.60
2023-10-23T22:33:41.814Z,11.60
2023-10-23T22:36:27.796Z,11.60
2023-10-23T22:39:13.920Z,11.60
2023-10-23T22:42:00.955Z,11.60
2023-10-23T22:44:47.013Z,11.70
2023-10-23T22:47:33.161Z,11.60
2023-10-23T22:50:20.058Z,11.60
2023-10-23T22:53:06.276Z,11.50
2023-10-23T22:55:55.118Z,11.50
2023-10-23T22:58:42.324Z,11.50
2023-10-23T23:01:28.994Z,11.40
2023-10-23T23:04:15.597Z,11.40
2023-10-23T23:07:03.950Z,11.40
2023-10-23T23:09:50.336Z,11.40
2023-10-23T23:12:37.580Z,11.30
2023-10-23T23:15:24.040Z,11.30
2023-10-23T23:18:20.061Z,11.30
2023-10-23T23:21:09.448Z,11.30
2023-10-23T23:23:55.546Z,11.30
2023-10-23T23:26:41.565Z,11.30
2023-10-23T23:29:27.877Z,11.20
2023-10-23T23:32:14.014Z,11.20
2023-10-23T23:35:00.298Z,11.20
2023-10-23T23:37:46.476Z,11.20
2023-10-23T23:40:32.485Z,11.30
2023-10-23T23:43:18.554Z,11.30
2023-10-23T23:46:04.789Z,11.40
2023-10-23T23:48:51.307Z,11.40
2023-10-23T23:51:37.633Z,11.40
2023-10-23T23:54:23.938Z,11.40
2023-10-23T23:57:12.120Z,11.40
2023-10-23T23:59:58.612Z,11.50
